Time;durP1;ratioP1;P1;durP2;ratioP2;P2;SDS_P1;SDS_P2;PMS_P1;PMS_P2;Temp;Humidity;BMP_temperature;BMP_pressure;BME280_temperature;BME280_humidity;BME280_pressure;Samples;Min_cycle;Max_cycle;Signal;HPM_P1;HPM_P2
2022/11/17 00:01:53;;;;;;;8.05;4.00;;;8.80;99.90;;;;;;5000747;28;20041;-71
2022/11/17 00:04:19;;;;;;;8.25;4.47;;;8.80;99.90;;;;;;5003827;28;20033;-70
2022/11/17 00:06:45;;;;;;;9.45;4.60;;;8.80;99.90;;;;;;5002059;28;20545;-71
2022/11/17 00:09:16;;;;;;;8.75;4.18;;;8.70;99.90;;;;;;5004534;28;20037;-71
2022/11/17 00:14:32;;;;;;;10.70;4.35;;;8.80;99.90;;;;;;5019805;28;20045;-71
2022/11/17 00:17:12;;;;;;;7.43;4.43;;;8.80;99.90;;;;;;5001240;28;20133;-71
2022/11/17 00:22:24;;;;;;;9.33;4.03;;;8.80;99.90;;;;;;5002024;28;20037;-71
2022/11/17 00:24:50;;;;;;;9.95;5.07;;;8.80;99.90;;;;;;4985490;28;20046;-71
2022/11/17 00:27:16;;;;;;;6.35;3.40;;;8.80;99.90;;;;;;4987071;28;20131;-71
2022/11/17 00:29:41;;;;;;;7.95;4.13;;;8.80;99.90;;;;;;5006332;28;20070;-71
2022/11/17 00:35:00;;;;;;;8.50;3.97;;;8.80;99.90;;;;;;5018309;28;20042;-71
2022/11/17 00:37:28;;;;;;;13.13;4.80;;;8.70;99.90;;;;;;5003949;28;20407;-71
2022/11/17 00:39:54;;;;;;;8.23;4.55;;;8.80;99.90;;;;;;5003675;28;20046;-71
2022/11/17 00:42:20;;;;;;;8.18;4.22;;;8.70;99.90;;;;;;4980321;28;20038;-71
2022/11/17 00:44:46;;;;;;;7.20;4.10;;;8.80;99.90;;;;;;5001120;28;20048;-71
2022/11/17 00:47:11;;;;;;;9.18;4.22;;;8.70;99.90;;;;;;5002641;28;20030;-71
2022/11/17 00:49:37;;;;;;;7.35;4.43;;;8.70;99.90;;;;;;5002676;28;20057;-71
2022/11/17 00:52:03;;;;;;;8.90;4.63;;;8.70;99.90;;;;;;4987251;28;20076;-71
2022/11/17 00:54:28;;;;;;;8.82;4.10;;;8.70;99.90;;;;;;4999528;28;20053;-70
2022/11/17 00:56:54;;;;;;;8.27;4.03;;;8.80;99.90;;;;;;5004817;28;20038;-71
2022/11/17 00:59:20;;;;;;;10.20;4.07;;;8.70;99.90;;;;;;5002983;28;20052;-71
2022/11/17 01:01:46;;;;;;;8.57;4.65;;;8.70;99.90;;;;;;5002075;28;22174;-71
2022/11/17 01:04:14;;;;;;;8.15;4.75;;;8.80;99.90;;;;;;4984325;28;20040;-71
2022/11/17 01:06:43;;;;;;;12.82;4.85;;;8.80;99.90;;;;;;5005074;28;20482;-70
2022/11/17 01:09:21;;;;;;;6.90;4.25;;;8.80;99.90;;;;;;5004768;28;20149;-71
2022/11/17 01:11:48;;;;;;;7.45;4.10;;;8.70;99.90;;;;;;4989456;28;20037;-71
2022/11/17 01:14:17;;;;;;;7.70;3.90;;;8.70;99.90;;;;;;5003844;28;20546;-71
2022/11/17 01:16:43;;;;;;;6.13;3.65;;;8.70;99.90;;;;;;5002814;28;20404;-71
2022/11/17 01:19:10;;;;;;;7.60;4.10;;;8.70;99.90;;;;;;5002948;28;20054;-71
2022/11/17 01:21:36;;;;;;;6.65;3.65;;;8.70;99.90;;;;;;4995825;28;20049;-71
2022/11/17 01:24:02;;;;;;;5.95;3.97;;;8.70;99.90;;;;;;4988247;28;20038;-71
2022/11/17 01:26:34;;;;;;;8.35;4.70;;;8.80;99.90;;;;;;5003632;28;20056;-71
2022/11/17 01:29:00;;;;;;;9.23;4.38;;;8.70;99.90;;;;;;5002201;28;20041;-71
2022/11/17 01:31:28;;;;;;;9.75;4.13;;;8.80;99.90;;;;;;5002546;28;20033;-71
2022/11/17 01:33:55;;;;;;;10.55;4.28;;;8.70;99.90;;;;;;5001158;28;20116;-71
2022/11/17 01:39:17;;;;;;;6.88;3.92;;;8.80;99.90;;;;;;5004838;28;20053;-71
2022/11/17 01:41:42;;;;;;;14.05;4.18;;;8.70;99.90;;;;;;5003944;28;20052;-70
2022/11/17 01:44:43;;;;;;;7.15;4.00;;;8.70;99.90;;;;;;4982148;28;20030;-71
2022/11/17 01:47:33;;;;;;;8.95;4.03;;;8.70;99.90;;;;;;5013910;28;20045;-71
2022/11/17 01:50:04;;;;;;;6.35;3.70;;;8.70;99.90;;;;;;5003922;28;20104;-71
2022/11/17 01:52:33;;;;;;;8.27;3.55;;;8.70;99.90;;;;;;4984923;28;20046;-71
2022/11/17 01:55:00;;;;;;;6.13;3.72;;;8.70;99.90;;;;;;5003283;28;20041;-71
2022/11/17 01:57:32;;;;;;;9.18;4.38;;;8.70;99.90;;;;;;5004107;28;20045;-71
2022/11/17 02:00:02;;;;;;;7.03;4.00;;;8.70;99.90;;;;;;4984334;28;20038;-71
2022/11/17 02:02:28;;;;;;;10.07;3.38;;;8.70;99.90;;;;;;5003391;28;20046;-71
2022/11/17 02:05:09;;;;;;;8.25;4.10;;;8.70;99.90;;;;;;5000758;28;20052;-71
2022/11/17 02:07:38;;;;;;;8.43;4.35;;;8.70;99.90;;;;;;5001373;28;20034;-71
2022/11/17 02:10:05;;;;;;;6.65;3.05;;;8.70;99.90;;;;;;5000576;28;20042;-71
2022/11/17 02:12:32;;;;;;;6.53;3.55;;;8.70;99.90;;;;;;5001913;28;20073;-71
2022/11/17 02:14:59;;;;;;;5.20;3.00;;;8.70;99.90;;;;;;5001807;28;20042;-71
2022/11/17 02:17:36;;;;;;;6.18;3.88;;;8.70;99.90;;;;;;5000194;28;20762;-71
2022/11/17 02:20:16;;;;;;;6.22;3.55;;;8.70;99.90;;;;;;5003675;28;20073;-71
2022/11/17 02:22:51;;;;;;;6.70;3.33;;;8.70;99.90;;;;;;5001007;28;20038;-71
2022/11/17 02:25:21;;;;;;;5.63;3.67;;;8.70;99.90;;;;;;4997493;28;20087;-71
2022/11/17 02:28:09;;;;;;;6.85;3.42;;;8.70;99.90;;;;;;5001744;28;20034;-71
2022/11/17 02:30:47;;;;;;;12.10;4.25;;;8.60;99.90;;;;;;5001540;28;20962;-71
2022/11/17 02:33:32;;;;;;;6.22;3.40;;;8.60;99.90;;;;;;5000285;28;20060;-71
2022/11/17 02:36:08;;;;;;;7.45;3.28;;;8.70;99.90;;;;;;5000521;28;20988;-71
2022/11/17 02:38:43;;;;;;;8.57;4.10;;;8.60;99.90;;;;;;5001826;28;20103;-71
2022/11/17 02:41:18;;;;;;;8.85;3.92;;;8.70;99.90;;;;;;5001753;28;20041;-71
2022/11/17 02:44:09;;;;;;;7.88;2.80;;;8.60;99.90;;;;;;4999309;28;20053;-71
2022/11/17 02:46:47;;;;;;;10.23;4.55;;;8.60;99.90;;;;;;5002686;28;20577;-71
2022/11/17 02:49:19;;;;;;;5.65;3.00;;;8.60;99.90;;;;;;5002874;28;20064;-71
2022/11/17 02:51:49;;;;;;;7.25;3.45;;;8.50;99.90;;;;;;5001741;28;20049;-71
2022/11/17 02:54:16;;;;;;;8.48;4.10;;;8.50;99.90;;;;;;4999228;28;20450;-71
2022/11/17 02:56:42;;;;;;;9.23;3.53;;;8.50;99.90;;;;;;5000989;28;20092;-71
2022/11/17 02:59:11;;;;;;;7.88;3.47;;;8.50;99.90;;;;;;5002403;28;20084;-71
2022/11/17 03:02:08;;;;;;;11.57;4.00;;;8.50;99.90;;;;;;4999866;28;20429;-71
2022/11/17 03:04:41;;;;;;;16.35;4.45;;;8.50;99.90;;;;;;5018845;28;20057;-71
2022/11/17 03:07:29;;;;;;;4.97;2.85;;;8.50;99.90;;;;;;5001777;28;20041;-71
2022/11/17 03:10:12;;;;;;;7.80;4.10;;;8.50;99.90;;;;;;5001766;28;20085;-71
2022/11/17 03:13:05;;;;;;;5.78;3.38;;;8.40;99.90;;;;;;5004202;28;20641;-71
2022/11/17 03:16:03;;;;;;;7.85;3.88;;;8.40;99.90;;;;;;4999467;28;20048;-71
2022/11/17 03:18:39;;;;;;;6.75;2.95;;;8.40;99.90;;;;;;5002176;28;20062;-71
2022/11/17 03:21:19;;;;;;;8.32;3.53;;;8.40;99.90;;;;;;5003830;28;20065;-71
2022/11/17 03:24:04;;;;;;;6.75;3.30;;;8.40;99.90;;;;;;5005699;28;20037;-71
2022/11/17 03:26:34;;;;;;;15.57;4.13;;;8.40;99.90;;;;;;5006797;28;20042;-71
2022/11/17 03:29:03;;;;;;;6.03;3.00;;;8.40;99.90;;;;;;5003226;28;20096;-71
2022/11/17 03:31:31;;;;;;;7.05;3.20;;;8.40;99.90;;;;;;5005098;28;20045;-71
2022/11/17 03:33:58;;;;;;;7.95;3.35;;;8.40;99.90;;;;;;5005079;28;20049;-71
2022/11/17 03:36:31;;;;;;;5.47;3.00;;;8.40;99.90;;;;;;5004646;28;20042;-71
2022/11/17 03:39:11;;;;;;;6.35;3.47;;;8.30;99.90;;;;;;5005952;28;20130;-72
2022/11/17 03:41:45;;;;;;;8.25;3.55;;;8.30;99.90;;;;;;5005985;28;20060;-71
2022/11/17 03:44:14;;;;;;;5.97;3.13;;;8.30;99.90;;;;;;5004619;28;20038;-71
2022/11/17 03:46:42;;;;;;;6.35;3.05;;;8.30;99.90;;;;;;5004661;28;20390;-71
2022/11/17 03:49:19;;;;;;;6.78;3.97;;;8.30;99.90;;;;;;5005313;28;20033;-71
2022/11/17 03:51:45;;;;;;;5.47;3.15;;;8.30;99.90;;;;;;5003987;28;20770;-71
2022/11/17 03:54:13;;;;;;;7.45;3.38;;;8.20;99.90;;;;;;4988982;28;20061;-72
2022/11/17 03:57:00;;;;;;;5.35;3.05;;;8.20;99.90;;;;;;5005904;28;20073;-72
2022/11/17 03:59:42;;;;;;;6.57;4.13;;;8.20;99.90;;;;;;4985822;28;20038;-71
2022/11/17 04:02:12;;;;;;;6.95;3.15;;;8.20;99.90;;;;;;5001907;28;20464;-71
2022/11/17 04:07:22;;;;;;;13.95;3.92;;;8.20;99.90;;;;;;5005989;28;20045;-71
2022/11/17 04:09:47;;;;;;;5.35;2.50;;;8.20;99.90;;;;;;4988947;28;20042;-71
2022/11/17 04:17:41;;;;;;;7.63;2.72;;;8.10;99.90;;;;;;5003015;28;20046;-72
2022/11/17 04:20:08;;;;;;;7.50;4.15;;;8.10;99.90;;;;;;5003720;28;20073;-71
2022/11/17 04:22:33;;;;;;;4.38;2.63;;;8.10;99.90;;;;;;5004677;28;20423;-72
2022/11/17 04:24:59;;;;;;;6.15;2.65;;;8.10;99.90;;;;;;5003503;28;20034;-71
2022/11/17 04:30:09;;;;;;;5.13;3.15;;;8.10;99.90;;;;;;5004292;28;20053;-71
2022/11/17 04:32:35;;;;;;;6.68;3.40;;;8.00;99.90;;;;;;5004859;28;20119;-71
2022/11/17 04:35:00;;;;;;;6.05;2.78;;;8.00;99.90;;;;;;5006076;28;20084;-71
2022/11/17 04:37:26;;;;;;;5.22;2.30;;;8.10;99.90;;;;;;5005348;28;20046;-71
2022/11/17 04:39:52;;;;;;;5.13;2.97;;;8.00;99.90;;;;;;5003382;28;20123;-71
2022/11/17 04:42:18;;;;;;;5.30;2.80;;;8.00;99.90;;;;;;5005439;28;20042;-71
2022/11/17 04:44:43;;;;;;;7.32;3.08;;;8.00;99.90;;;;;;5004506;28;20038;-71
2022/11/17 04:47:09;;;;;;;4.38;2.67;;;8.00;99.90;;;;;;5005628;28;20034;-71
2022/11/17 04:49:34;;;;;;;4.50;2.47;;;8.00;99.90;;;;;;5004562;28;20042;-71
2022/11/17 04:52:00;;;;;;;5.60;2.45;;;8.00;99.90;;;;;;5004527;28;20046;-71
2022/11/17 04:54:26;;;;;;;5.20;2.00;;;8.00;99.90;;;;;;5004772;28;20041;-71
2022/11/17 04:56:53;;;;;;;4.85;2.30;;;7.90;99.90;;;;;;5013413;28;20477;-71
2022/11/17 04:59:18;;;;;;;4.32;2.58;;;7.90;99.90;;;;;;4998799;28;20041;-71
2022/11/17 05:01:44;;;;;;;4.65;2.55;;;7.90;99.90;;;;;;5004919;28;21996;-71
2022/11/17 05:04:12;;;;;;;6.90;3.22;;;7.90;99.90;;;;;;5004198;28;20033;-71
2022/11/17 05:06:40;;;;;;;5.05;2.83;;;7.90;99.90;;;;;;5004946;28;20041;-71
2022/11/17 05:09:16;;;;;;;4.38;2.20;;;7.90;99.90;;;;;;5003105;28;20033;-71
2022/11/17 05:14:27;;;;;;;4.05;2.17;;;7.90;99.90;;;;;;5003317;28;19952;-71
2022/11/17 05:17:05;;;;;;;6.78;3.20;;;7.80;99.90;;;;;;5002266;28;20038;-71
2022/11/17 05:19:33;;;;;;;5.25;2.72;;;7.90;99.90;;;;;;5002454;28;20054;-71
2022/11/17 05:21:59;;;;;;;7.38;2.97;;;7.80;99.90;;;;;;5004746;28;20149;-71
2022/11/17 05:24:29;;;;;;;3.65;2.50;;;7.80;99.90;;;;;;5003624;28;20038;-71
2022/11/17 05:26:55;;;;;;;4.60;2.85;;;7.80;99.90;;;;;;5003346;28;20045;-71
2022/11/17 05:29:22;;;;;;;4.47;2.55;;;7.80;99.90;;;;;;4977671;28;20062;-71
2022/11/17 05:31:48;;;;;;;4.88;2.95;;;7.80;99.90;;;;;;5003365;28;20069;-71
2022/11/17 05:34:16;;;;;;;6.07;2.67;;;7.80;99.90;;;;;;4982724;28;20057;-71
2022/11/17 05:36:42;;;;;;;6.50;3.88;;;7.70;99.90;;;;;;5005666;28;20050;-71
2022/11/17 05:39:08;;;;;;;5.07;2.25;;;7.70;99.90;;;;;;5002031;28;20042;-71
2022/11/17 05:41:35;;;;;;;4.05;2.30;;;7.70;99.90;;;;;;4980386;28;20091;-71
2022/11/17 05:44:02;;;;;;;5.57;2.67;;;7.70;99.90;;;;;;4999918;28;20054;-71
2022/11/17 05:46:28;;;;;;;3.85;2.10;;;7.70;99.90;;;;;;5002616;28;20084;-71
2022/11/17 05:48:53;;;;;;;10.07;3.10;;;7.70;99.90;;;;;;4999474;28;20061;-71
2022/11/17 05:51:22;;;;;;;4.43;2.20;;;7.70;99.90;;;;;;5003204;28;20038;-71
2022/11/17 05:53:48;;;;;;;3.95;2.42;;;7.70;99.90;;;;;;5019460;28;20030;-71
2022/11/17 05:56:16;;;;;;;4.90;2.75;;;7.70;99.90;;;;;;4986935;28;20042;-72
2022/11/17 05:58:45;;;;;;;5.60;3.03;;;7.60;99.90;;;;;;4999895;28;20120;-71
2022/11/17 06:01:14;;;;;;;5.63;2.58;;;7.60;99.90;;;;;;5018271;28;20042;-71
2022/11/17 06:03:45;;;;;;;4.50;2.85;;;7.60;99.90;;;;;;5004129;28;20491;-71
2022/11/17 06:06:11;;;;;;;3.45;2.35;;;7.60;99.90;;;;;;4999804;28;20042;-71
2022/11/17 06:08:36;;;;;;;5.60;2.25;;;7.60;99.90;;;;;;5003438;28;20041;-71
2022/11/17 06:11:02;;;;;;;3.92;1.80;;;7.60;99.90;;;;;;4987273;28;20040;-71
2022/11/17 06:13:28;;;;;;;3.70;1.85;;;7.60;99.90;;;;;;5002570;28;20479;-71
2022/11/17 06:16:00;;;;;;;6.38;2.30;;;7.60;99.90;;;;;;4999179;28;20046;-71
2022/11/17 06:18:33;;;;;;;4.95;2.50;;;7.50;99.90;;;;;;5001562;28;20081;-71
2022/11/17 06:20:59;;;;;;;4.35;2.22;;;7.50;99.90;;;;;;5003718;28;20046;-71
2022/11/17 06:23:27;;;;;;;3.20;2.33;;;7.50;99.90;;;;;;5003857;28;20090;-71
2022/11/17 06:25:53;;;;;;;2.88;1.95;;;7.50;99.90;;;;;;4998818;28;20038;-71
2022/11/17 06:28:20;;;;;;;3.97;2.03;;;7.50;99.90;;;;;;5002814;28;20503;-71
2022/11/17 06:30:47;;;;;;;4.80;2.42;;;7.50;99.90;;;;;;5002944;28;20045;-71
2022/11/17 06:33:16;;;;;;;3.63;1.70;;;7.50;99.90;;;;;;5003398;28;20041;-71
2022/11/17 06:35:44;;;;;;;5.18;2.58;;;7.50;99.90;;;;;;5000645;28;20403;-71
2022/11/17 06:38:09;;;;;;;3.47;2.00;;;7.50;99.90;;;;;;5002890;28;20491;-71
2022/11/17 06:40:35;;;;;;;4.68;2.05;;;7.40;99.90;;;;;;5003197;28;20083;-72
2022/11/17 06:43:09;;;;;;;4.75;2.50;;;7.40;99.90;;;;;;4985665;28;20060;-71
2022/11/17 06:45:40;;;;;;;4.60;2.17;;;7.40;99.90;;;;;;4984552;28;20034;-71
2022/11/17 06:48:08;;;;;;;5.72;2.92;;;7.40;99.90;;;;;;5000481;28;20527;-72
2022/11/17 06:50:34;;;;;;;4.82;2.30;;;7.40;99.90;;;;;;5003316;28;20464;-72
2022/11/17 06:53:06;;;;;;;3.10;1.65;;;7.40;99.90;;;;;;5002692;28;20040;-71
2022/11/17 06:55:33;;;;;;;3.67;1.92;;;7.50;99.90;;;;;;5003353;28;20080;-72
2022/11/17 06:58:05;;;;;;;4.30;2.00;;;7.50;99.90;;;;;;5005142;28;20116;-71
2022/11/17 07:00:31;;;;;;;4.53;2.22;;;7.50;99.90;;;;;;5005202;28;21865;-71
2022/11/17 07:03:02;;;;;;;2.78;1.85;;;7.50;99.90;;;;;;5006296;28;20030;-72
2022/11/17 07:05:28;;;;;;;4.63;2.55;;;7.50;99.90;;;;;;5005125;28;20046;-71
2022/11/17 07:07:58;;;;;;;4.35;1.63;;;7.50;99.90;;;;;;5007415;28;20050;-72
2022/11/17 07:10:24;;;;;;;4.25;2.13;;;7.50;99.90;;;;;;4999131;28;20116;-71
2022/11/17 07:12:49;;;;;;;4.15;2.20;;;7.50;99.90;;;;;;4989543;28;20180;-72
2022/11/17 07:15:15;;;;;;;3.75;2.17;;;7.50;99.90;;;;;;4988096;28;20038;-72
2022/11/17 07:17:41;;;;;;;4.05;2.03;;;7.50;99.90;;;;;;5006472;28;20049;-72
2022/11/17 07:20:07;;;;;;;3.35;2.28;;;7.50;99.90;;;;;;5003205;28;20474;-71
2022/11/17 07:22:33;;;;;;;2.60;1.65;;;7.50;99.90;;;;;;5006106;28;20042;-71
2022/11/17 07:24:58;;;;;;;3.50;1.90;;;7.50;99.90;;;;;;5006380;28;20040;-71
2022/11/17 07:27:24;;;;;;;4.18;1.80;;;7.50;99.90;;;;;;5005210;28;20128;-72
2022/11/17 07:29:49;;;;;;;3.88;1.95;;;7.50;99.90;;;;;;5001700;28;20128;-72
2022/11/17 07:32:15;;;;;;;2.70;1.88;;;7.50;99.90;;;;;;5006192;28;20069;-71
2022/11/17 07:34:41;;;;;;;3.05;1.85;;;7.50;99.90;;;;;;5003439;28;20049;-71
2022/11/17 07:37:07;;;;;;;3.25;1.95;;;7.50;99.90;;;;;;5005998;28;20041;-71
2022/11/17 07:39:32;;;;;;;3.13;1.58;;;7.50;99.90;;;;;;4985335;28;20072;-72
2022/11/17 07:41:58;;;;;;;3.10;1.90;;;7.50;99.90;;;;;;4987352;28;20076;-72
2022/11/17 07:44:24;;;;;;;3.85;2.10;;;7.50;99.90;;;;;;5001028;28;20044;-71
2022/11/17 07:46:49;;;;;;;4.75;1.90;;;7.50;99.90;;;;;;5004109;28;20483;-72
2022/11/17 07:49:15;;;;;;;3.25;1.48;;;7.50;99.90;;;;;;5004247;28;20080;-71
2022/11/17 07:51:41;;;;;;;3.55;1.67;;;7.50;99.90;;;;;;5002837;28;20474;-71
2022/11/17 07:54:06;;;;;;;2.97;1.70;;;7.50;99.90;;;;;;5017832;28;20100;-71
2022/11/17 07:56:33;;;;;;;2.63;1.60;;;7.50;99.90;;;;;;5003952;28;20052;-71
2022/11/17 07:58:58;;;;;;;4.03;1.83;;;7.50;99.90;;;;;;5003228;28;20046;-72
2022/11/17 08:01:26;;;;;;;1.83;0.90;;;7.40;99.90;;;;;;5004763;28;20068;-71
2022/11/17 08:03:52;;;;;;;4.60;1.52;;;7.50;99.90;;;;;;4987338;28;21012;-71
2022/11/17 08:06:18;;;;;;;3.25;1.90;;;7.50;99.90;;;;;;5005555;28;20136;-71
2022/11/17 08:08:44;;;;;;;2.38;1.42;;;7.50;99.90;;;;;;5005637;28;20121;-71
2022/11/17 08:11:11;;;;;;;2.97;1.50;;;7.50;99.90;;;;;;5004279;28;20169;-71
2022/11/17 08:13:39;;;;;;;4.55;2.22;;;7.50;99.90;;;;;;4994579;28;20049;-71
2022/11/17 08:16:06;;;;;;;3.08;1.50;;;7.50;99.90;;;;;;5003846;28;20049;-71
2022/11/17 08:18:32;;;;;;;3.85;1.73;;;7.50;99.90;;;;;;5015554;28;20513;-71
2022/11/17 08:21:03;;;;;;;3.25;1.58;;;7.50;99.90;;;;;;5000233;28;20049;-71
2022/11/17 08:23:29;;;;;;;3.58;1.92;;;7.50;99.90;;;;;;4983309;28;20130;-71
2022/11/17 08:25:54;;;;;;;3.50;1.25;;;7.50;99.90;;;;;;4999703;28;20140;-71
2022/11/17 08:28:21;;;;;;;5.82;2.13;;;7.50;99.90;;;;;;4998936;28;20034;-73
2022/11/17 08:30:47;;;;;;;2.55;1.50;;;7.50;99.90;;;;;;4999237;28;20044;-72
2022/11/17 08:33:12;;;;;;;4.60;1.95;;;7.50;99.90;;;;;;5011334;28;20042;-73
2022/11/17 08:35:38;;;;;;;3.60;1.73;;;7.50;99.90;;;;;;4995485;28;20038;-72
2022/11/17 08:38:04;;;;;;;4.28;1.70;;;7.50;99.90;;;;;;4998008;28;20139;-72
2022/11/17 08:40:30;;;;;;;3.70;2.30;;;7.50;99.90;;;;;;5010845;28;20499;-72
2022/11/17 08:42:57;;;;;;;3.35;1.52;;;7.50;99.90;;;;;;5010537;28;20073;-73
2022/11/17 08:45:23;;;;;;;2.15;1.65;;;7.50;99.90;;;;;;5006750;28;21435;-72
2022/11/17 08:47:48;;;;;;;4.38;2.17;;;7.50;99.90;;;;;;4993282;28;20045;-72
2022/11/17 08:50:16;;;;;;;3.47;1.88;;;7.50;99.90;;;;;;5009684;28;20044;-72
2022/11/17 08:52:43;;;;;;;4.45;1.77;;;7.50;99.90;;;;;;4993046;28;20045;-73
2022/11/17 08:55:09;;;;;;;3.35;1.67;;;7.50;99.90;;;;;;4991246;28;20042;-72
2022/11/17 08:57:35;;;;;;;3.30;1.55;;;7.50;99.90;;;;;;4992208;28;20406;-73
2022/11/17 09:00:01;;;;;;;3.28;1.75;;;7.40;99.90;;;;;;5008906;28;20091;-72
2022/11/17 09:02:27;;;;;;;2.83;1.92;;;7.40;99.90;;;;;;5011086;28;20133;-73
2022/11/17 09:04:52;;;;;;;3.72;2.30;;;7.40;99.90;;;;;;5008732;28;20085;-72
2022/11/17 09:07:18;;;;;;;3.20;2.10;;;7.40;99.90;;;;;;4991133;28;20080;-72
2022/11/17 09:09:45;;;;;;;7.22;2.55;;;7.40;99.90;;;;;;5008850;28;20053;-73
2022/11/17 09:12:11;;;;;;;7.38;2.20;;;7.40;99.90;;;;;;5007856;28;20050;-73
2022/11/17 09:14:36;;;;;;;5.05;2.22;;;7.50;99.90;;;;;;5006930;28;20095;-72
2022/11/17 09:17:03;;;;;;;2.92;1.73;;;7.40;99.90;;;;;;5008038;28;20049;-73
2022/11/17 09:19:29;;;;;;;3.20;1.70;;;7.40;99.90;;;;;;5008171;28;20065;-72
2022/11/17 09:21:55;;;;;;;1.52;1.27;;;7.50;99.90;;;;;;5008702;28;20133;-73
2022/11/17 09:24:20;;;;;;;1.83;1.15;;;7.50;99.90;;;;;;5009902;28;20169;-72
2022/11/17 09:26:46;;;;;;;3.10;1.85;;;7.50;99.90;;;;;;5008008;28;20052;-73
2022/11/17 09:29:12;;;;;;;2.30;1.50;;;7.50;99.90;;;;;;5007142;28;20394;-73
2022/11/17 09:31:37;;;;;;;2.55;1.38;;;7.50;99.90;;;;;;5009000;28;20528;-72
2022/11/17 09:34:03;;;;;;;3.75;1.67;;;7.50;99.90;;;;;;5005007;28;20038;-72
2022/11/17 09:36:29;;;;;;;2.20;1.17;;;7.50;99.90;;;;;;4992246;28;20165;-75
2022/11/17 09:38:54;;;;;;;2.80;1.40;;;7.50;99.90;;;;;;5003343;28;20169;-72
2022/11/17 09:41:37;;;;;;;2.65;1.33;;;7.50;99.90;;;;;;5003910;28;20084;-72
2022/11/17 09:44:18;;;;;;;2.70;1.33;;;7.50;99.90;;;;;;4989048;28;20065;-72
2022/11/17 09:47:33;;;;;;;3.67;1.42;;;7.50;99.90;;;;;;5015578;28;20038;-72
2022/11/17 09:50:21;;;;;;;2.28;1.17;;;7.50;99.90;;;;;;4960278;28;20051;-72
2022/11/17 09:52:59;;;;;;;2.15;1.35;;;7.50;99.90;;;;;;4946915;28;20046;-73
2022/11/17 09:55:36;;;;;;;2.38;1.30;;;7.50;99.90;;;;;;4982081;28;20533;-72
2022/11/17 09:58:23;;;;;;;3.88;1.42;;;7.50;99.90;;;;;;5003649;28;20040;-72
2022/11/17 10:00:51;;;;;;;2.60;1.33;;;7.50;99.90;;;;;;4997110;28;20442;-72
2022/11/17 10:03:32;;;;;;;2.25;1.25;;;7.50;99.90;;;;;;4997171;28;20049;-72
2022/11/17 10:05:59;;;;;;;2.65;1.42;;;7.50;99.90;;;;;;5003845;28;20202;-72
2022/11/17 10:08:46;;;;;;;3.03;1.85;;;7.50;99.90;;;;;;4980257;28;20097;-72
2022/11/17 10:11:33;;;;;;;2.72;1.30;;;7.60;99.90;;;;;;4990420;28;20068;-72
2022/11/17 10:14:12;;;;;;;2.17;1.40;;;7.60;99.90;;;;;;5003252;28;20029;-72
2022/11/17 10:16:40;;;;;;;2.60;1.27;;;7.60;99.90;;;;;;5006234;28;20045;-73
2022/11/17 10:19:09;;;;;;;2.55;0.93;;;7.60;99.90;;;;;;4988451;28;20053;-72
2022/11/17 10:21:36;;;;;;;2.53;1.33;;;7.60;99.90;;;;;;5008839;28;20057;-72
2022/11/17 10:24:02;;;;;;;2.95;1.35;;;7.60;99.90;;;;;;5007016;28;20044;-72
2022/11/17 10:26:30;;;;;;;2.85;1.50;;;7.60;99.90;;;;;;5009560;28;20045;-72
2022/11/17 10:29:11;;;;;;;1.92;0.90;;;7.60;99.90;;;;;;5002303;28;20041;-72
2022/11/17 10:31:45;;;;;;;2.55;1.23;;;7.60;99.90;;;;;;4978702;28;20046;-82
2022/11/17 10:34:27;;;;;;;2.45;1.50;;;7.60;99.90;;;;;;4982756;28;20030;-78
2022/11/17 10:36:53;;;;;;;1.85;1.00;;;7.60;99.90;;;;;;4984516;28;20060;-75
2022/11/17 10:39:35;;;;;;;1.50;1.02;;;7.60;99.90;;;;;;4999576;28;20030;-73
2022/11/17 10:42:13;;;;;;;1.98;1.20;;;7.60;99.90;;;;;;4981245;28;20078;-73
2022/11/17 10:44:41;;;;;;;1.75;0.88;;;7.60;99.90;;;;;;4997535;28;20057;-72
2022/11/17 10:47:31;;;;;;;1.85;1.15;;;7.70;99.90;;;;;;5001690;28;20061;-73
2022/11/17 10:50:26;;;;;;;2.08;1.08;;;7.70;99.90;;;;;;4983016;28;20137;-73
2022/11/17 10:53:12;;;;;;;2.20;1.40;;;7.70;99.90;;;;;;5002394;28;20054;-72
2022/11/17 10:55:38;;;;;;;2.33;0.98;;;7.70;99.90;;;;;;5002277;28;20037;-73
2022/11/17 10:58:24;;;;;;;2.03;0.90;;;7.70;99.90;;;;;;5005161;28;20259;-73
2022/11/17 11:00:58;;;;;;;2.38;1.20;;;7.70;99.90;;;;;;4998309;28;20117;-73
2022/11/17 11:03:33;;;;;;;2.45;1.20;;;7.70;99.90;;;;;;5004358;28;20124;-73
2022/11/17 11:06:06;;;;;;;1.67;0.70;;;7.70;99.90;;;;;;5003474;28;20030;-73
2022/11/17 11:08:45;;;;;;;1.95;0.82;;;7.70;99.90;;;;;;5002396;28;20065;-72
2022/11/17 11:11:40;;;;;;;2.63;1.20;;;7.70;99.90;;;;;;4997518;28;20753;-73
2022/11/17 11:14:32;;;;;;;1.45;0.93;;;7.70;99.90;;;;;;4989814;28;20050;-73
2022/11/17 11:16:58;;;;;;;1.70;1.00;;;7.70;99.90;;;;;;4995295;28;20510;-73
2022/11/17 11:19:24;;;;;;;2.15;1.17;;;7.70;99.90;;;;;;4999558;28;20041;-73
2022/11/17 11:22:01;;;;;;;3.88;1.02;;;7.70;99.90;;;;;;4995959;28;20081;-73
2022/11/17 11:25:08;;;;;;;1.48;0.65;;;7.70;99.90;;;;;;5004232;28;20030;-73
2022/11/17 11:27:59;;;;;;;2.92;1.38;;;7.70;99.90;;;;;;4967762;28;20054;-73
2022/11/17 11:30:26;;;;;;;1.85;0.98;;;7.70;99.90;;;;;;5006609;28;20030;-73
2022/11/17 11:33:09;;;;;;;2.03;1.02;;;7.80;99.90;;;;;;4997572;28;20042;-73
2022/11/17 11:35:50;;;;;;;1.35;0.77;;;7.80;99.90;;;;;;4996670;28;20092;-73
2022/11/17 11:38:47;;;;;;;1.80;0.93;;;7.80;99.90;;;;;;5001786;28;20076;-73
2022/11/17 11:41:37;;;;;;;1.42;0.85;;;7.80;99.90;;;;;;5015847;28;20388;-73
2022/11/17 11:44:12;;;;;;;1.50;1.00;;;7.80;99.90;;;;;;4994813;28;20061;-73
2022/11/17 11:46:59;;;;;;;2.03;1.08;;;7.80;99.90;;;;;;4983352;28;20046;-73
2022/11/17 11:49:37;;;;;;;2.00;0.85;;;7.90;99.90;;;;;;5000167;28;20371;-73
2022/11/17 11:52:09;;;;;;;2.47;1.40;;;7.90;99.90;;;;;;4982883;28;20503;-73
2022/11/17 11:54:42;;;;;;;2.88;1.35;;;7.90;99.90;;;;;;4997869;28;20050;-73
2022/11/17 11:57:13;;;;;;;2.13;0.80;;;7.90;99.90;;;;;;5000815;28;20192;-73
2022/11/17 12:00:00;;;;;;;1.08;0.63;;;7.90;99.90;;;;;;4996887;28;20096;-72
2022/11/17 12:02:49;;;;;;;1.40;0.70;;;7.90;99.90;;;;;;4993468;28;20049;-73
2022/11/17 12:05:52;;;;;;;2.45;0.95;;;7.90;99.90;;;;;;4980796;28;20045;-73
2022/11/17 12:08:41;;;;;;;6.13;1.20;;;7.90;99.90;;;;;;5001408;28;20121;-73
2022/11/17 12:14:00;;;;;;;2.85;1.30;;;8.00;99.90;;;;;;4963555;28;20053;-73
2022/11/17 12:16:31;;;;;;;2.42;1.25;;;8.00;99.90;;;;;;4999775;28;20184;-73
2022/11/17 12:18:57;;;;;;;1.73;0.82;;;8.00;99.90;;;;;;4996251;28;20523;-73
2022/11/17 12:21:24;;;;;;;1.20;0.88;;;8.00;99.90;;;;;;5010272;28;20046;-73
2022/11/17 12:23:56;;;;;;;2.38;1.10;;;8.10;99.90;;;;;;4998522;28;20053;-73
2022/11/17 12:26:29;;;;;;;1.27;0.77;;;8.10;99.90;;;;;;4993532;28;20136;-73
2022/11/17 12:29:25;;;;;;;1.55;0.95;;;8.20;99.90;;;;;;4986198;28;20854;-73
2022/11/17 12:31:52;;;;;;;2.15;1.10;;;8.20;99.90;;;;;;4994816;28;20042;-73
2022/11/17 12:34:25;;;;;;;1.38;1.00;;;8.20;99.90;;;;;;4994678;28;20041;-73
2022/11/17 12:37:15;;;;;;;1.10;0.77;;;8.30;99.90;;;;;;4995666;28;20034;-73
2022/11/17 12:39:59;;;;;;;2.00;1.17;;;8.30;99.90;;;;;;4996895;28;20140;-73
2022/11/17 12:42:30;;;;;;;2.80;1.33;;;8.30;99.90;;;;;;4979415;28;20046;-73
2022/11/17 12:45:11;;;;;;;2.67;1.38;;;8.30;99.90;;;;;;4999351;28;20034;-73
2022/11/17 12:47:40;;;;;;;1.50;0.93;;;8.40;99.90;;;;;;4980109;28;20475;-73
2022/11/17 12:50:17;;;;;;;5.15;1.33;;;8.40;99.90;;;;;;5002931;28;20034;-73
2022/11/17 12:52:45;;;;;;;3.00;1.48;;;8.40;99.90;;;;;;4998253;28;20042;-73
2022/11/17 12:55:30;;;;;;;2.28;1.23;;;8.40;99.90;;;;;;4981579;28;20093;-73
2022/11/17 12:58:09;;;;;;;1.85;1.20;;;8.40;99.90;;;;;;4995838;28;20120;-73
2022/11/17 13:01:16;;;;;;;1.30;0.90;;;8.40;99.90;;;;;;4993257;28;20049;-73
2022/11/17 13:03:48;;;;;;;2.05;1.17;;;8.40;99.90;;;;;;4998623;28;20426;-73
2022/11/17 13:06:15;;;;;;;1.73;1.15;;;8.40;99.90;;;;;;5009126;28;20104;-73
2022/11/17 13:08:58;;;;;;;1.10;0.65;;;8.50;99.90;;;;;;4996925;28;20056;-73
2022/11/17 13:11:24;;;;;;;2.63;1.30;;;8.50;99.90;;;;;;5014086;28;20991;-73
2022/11/17 13:14:04;;;;;;;2.60;1.52;;;8.50;99.90;;;;;;4997432;28;20060;-73
2022/11/17 13:16:30;;;;;;;1.95;1.13;;;8.60;99.90;;;;;;4992138;28;20120;-73
2022/11/17 13:18:56;;;;;;;1.00;0.88;;;8.60;99.90;;;;;;4996213;28;20052;-73
2022/11/17 13:21:24;;;;;;;2.05;0.95;;;8.60;99.90;;;;;;4998115;28;20133;-73
2022/11/17 13:23:51;;;;;;;2.78;1.52;;;8.60;99.90;;;;;;4979837;28;20045;-73
2022/11/17 13:26:19;;;;;;;1.98;1.05;;;8.70;99.90;;;;;;4995027;28;20479;-73
2022/11/17 13:28:45;;;;;;;1.80;1.30;;;8.70;99.90;;;;;;4999297;28;20470;-73
2022/11/17 13:31:19;;;;;;;1.65;1.15;;;8.70;99.90;;;;;;4997717;28;20045;-73
2022/11/17 13:34:16;;;;;;;2.10;1.48;;;8.70;99.90;;;;;;4979751;28;20446;-73
2022/11/17 13:36:55;;;;;;;;;;;8.70;99.90;;;;;;4984979;28;20053;-72
2022/11/17 13:39:21;;;;;;;1.77;1.20;;;8.70;99.90;;;;;;4997160;28;19917;-73
2022/11/17 13:41:48;;;;;;;3.15;1.20;;;8.70;99.90;;;;;;4991111;28;20132;-73
2022/11/17 13:44:18;;;;;;;2.05;1.20;;;8.60;99.90;;;;;;4978345;28;20038;-73
2022/11/17 13:46:44;;;;;;;2.03;1.20;;;8.60;99.90;;;;;;4994054;28;20046;-73
2022/11/17 13:49:33;;;;;;;2.63;1.20;;;8.60;99.90;;;;;;5000212;28;20683;-73